Bridgeport Valley, California Weather observations

Data are for 10 minute period ending at time listed.
 Day   Time   Solar   Ave.   Ave.  Ave.  Vector  Max.   Baro.   Total    
  of    of     Rad.   Air    Rel.  Wind   Wind   Wind  Press.  Precip.   
Year   Day            Temp.  Hum.  Speed  Dir.   Gust                    
2015   (PST)  Kw/m2    F      %     mph   deg.    mph    mb.     in.     
-------------------------------------------------------------------------
  87    2:30   0.00   28.0    61    3.2    65     7.2   805.7    0.00 
  87    2:40   0.00   28.0    61    1.5   301     4.7   805.8    0.00 
  87    2:50   0.00   27.6    60    2.8   359     6.5   805.8    0.00 
  87    3:00   0.00   25.4    64    2.2    42     4.5   805.8    0.00 
  87    3:10   0.00   24.5    68    1.7   235     5.0   805.7    0.00 
  87    3:20   0.00   24.5    65    3.0   313     6.3   805.7    0.00 
  87    3:30   0.00   23.0    70    4.2   275     7.2   805.8    0.00 
  87    3:40   0.00   24.0    68    3.2   267    10.0   805.9    0.00 
  87    3:50   0.00   23.4    69    3.0   166     4.7   805.9    0.00 
  87    4:00   0.00   20.3    78    2.2   140     4.4   806.0    0.00 
  87    4:10   0.00   21.7    78    3.9   149     6.2   806.0    0.00 
  87    4:20   0.00   28.0    60    4.1   165     6.9   806.1    0.00 
  87    4:30   0.00   22.4    68    2.4   318     5.8   806.3    0.00 
  87    4:40   0.00   22.3    72    2.2   232     4.5   806.5    0.00 
  87    4:50   0.00   24.5    65    4.1   156     7.5   806.6    0.00 
  87    5:00   0.00   24.6    66    4.0   150     5.6   806.7    0.00 
  87    5:10   0.00   23.5    68    4.1   215     8.0   806.8    0.00 
  87    5:20   0.00   22.0    70    6.0   219     7.7   806.9    0.00 
  87    5:30   0.00   24.4    64    3.8   210     6.5   806.9    0.00 
  87    5:40   0.00   23.8    66    2.8   265     6.4   807.0    0.00 
  87    5:50   0.01   27.4    57    1.4    18     4.1   807.0    0.00 
  87    6:00   0.01   25.1    59    2.5    29     6.4   807.3    0.00 
  87    6:10   0.01   23.5    66    0.6   100     2.5   807.3    0.00 
  87    6:20   0.06   24.0    65    3.3   229     6.9   807.5    0.00 
  87    6:30   0.09   23.2    74    3.0   222     4.5   807.6    0.00 
  87    6:40   0.12   26.5    71    2.3   210     3.4   807.8    0.00 
  87    6:50   0.15   29.2    70    1.4   190     3.5   807.8    0.00 
  87    7:00   0.16   33.1    60    2.0   166     3.3   807.7    0.00 
  87    7:10   0.21   36.2    56    1.5   140     3.1   807.6    0.00 
  87    7:20   0.25   39.9    49    1.7   203     3.3   807.5    0.00 
  87    7:30   0.25   42.1    48    0.5   182     1.8   807.4    0.00 
  87    7:40   0.30   45.2    40    2.6    31     4.2   807.5    0.00 
  87    7:50   0.34   44.3    42    4.0     2     6.6   807.6    0.00 
  87    8:00   0.38   44.5    40    5.6    11     8.1   807.8    0.00 
  87    8:10   0.43   44.2    40    5.9    10     7.6   807.9    0.00 
  87    8:20   0.47   46.1    36    4.3    30     6.9   807.8    0.00 
  87    8:30   0.50   49.0    32    2.1    62     3.9   807.8    0.00 
  87    8:40   0.54   50.8    30    1.8    71     3.8   807.8    0.00 
  87    8:50   0.57   53.6    27    0.8    56     2.8   807.8    0.00 
  87    9:00   0.61   55.3    25    1.0    58     3.0   807.7    0.00 
  87    9:10   0.63   57.8    22    1.1   106     2.8   807.7    0.00 
  87    9:20   0.66   58.4    20    2.4    63     4.2   807.6    0.00 
  87    9:30   0.68   59.5    17    2.4    66     5.0   807.6    0.00 
  87    9:40   0.71   60.6    15    2.0    80     4.9   807.5    0.00 
  87    9:50   0.74   61.1    14    2.0   112     5.9   807.4    0.00 
  87   10:00   0.76   62.4    14    2.1   131     5.1   807.2    0.00 
  87   10:10   0.79   61.8    13    2.7   322    10.7   807.1    0.00 
  87   10:20   0.81   63.0    12    3.1    58     7.9   807.0    0.00 
  87   10:30   0.83   63.8    11    2.4    23     6.2   807.0    0.00 
  87   10:40   0.82   63.4    12    4.1    50     8.4   806.9    0.00 
  87   10:50   0.85   63.7    12    4.7    53     9.9   806.8    0.00 
  87   11:00   0.88   64.5    12    5.2    79     9.6   806.7    0.00 
  87   11:10   0.91   65.2    12    4.3    32     8.8   806.7    0.00 
  87   11:20   0.87   65.2    12    5.5    74    10.3   806.5    0.00 
  87   11:30   0.91   65.6    12    5.1    25    10.5   806.5    0.00 
  87   11:40   0.93   66.7    12    4.6    33    13.6   806.4    0.00 
  87   11:50   0.76   66.2    12    5.6    46    12.1   806.3    0.00 
  87   12:00   0.82   66.2    12    8.4    28    13.0   806.1    0.00 
  87   12:10   0.83   66.5    12    7.5    60    13.3   806.0    0.00 
  87   12:20   0.71   66.8    13    9.3    15    14.5   805.9    0.00 
  87   12:30   0.89   67.1    12    8.1    16    12.6   805.8    0.00 
  87   12:40   0.95   67.7    12    9.3    40    15.1   805.6    0.00 
  87   12:50   0.96   67.4    12    9.7    31    16.6   805.4    0.00 
  87   13:00   0.90   67.9    12   11.0    22    15.7   805.3    0.00 
  87   13:10   0.85   67.4    11    8.0    39    14.0   805.1    0.00 
  87   13:20   0.69   67.9    12   10.0    30    16.3   804.9    0.00 
  87   13:30   0.88   68.0    12   13.4    20    19.4   804.8    0.00 
  87   13:40   0.81   68.0    13   12.2    16    18.9   804.8    0.00 
  87   13:50   0.75   67.9    14   13.3    24    21.0   804.6    0.00 
  87   14:00   0.70   67.6    14   11.5    21    18.3   804.6    0.00 
  87   14:10   0.63   67.7    13   11.4    32    18.6   804.6    0.00 
  87   14:20   0.59   67.3    15   12.7    29    21.2   804.6    0.00 
  87   14:30   0.45   66.4    16   15.4    22    21.5   804.6    0.00 
  87   14:40   0.47   65.9    17   16.6    20    22.7   804.7    0.00 
  87   14:50   0.54   65.5    17   17.1    15    23.0   804.7    0.00 
  87   15:00   0.50   65.4    17   16.8    20    24.0   804.8    0.00 
  87   15:10   0.56   65.3    16   16.7    15    23.3   804.8    0.00 
  87   15:20   0.59   66.0    16   16.0    26    22.0   804.8    0.00 
  87   15:30   0.48   65.6    17   15.4    22    20.6   804.8    0.00 
  87   15:40   0.47   65.2    17   15.4    18    21.0   804.8    0.00 
  87   15:50   0.42   64.5    18   16.5    14    22.6   804.9    0.00 
  87   16:00   0.40   64.4    18   16.4    23    24.0   804.9    0.00 
  87   16:10   0.32   63.4    19   15.1    20    20.0   805.0    0.00 
  87   16:20   0.34   63.1    19   17.4    21    22.6   805.1    0.00 
  87   16:30   0.23   61.9    20   14.2    19    21.0   805.2    0.00 
  87   16:40   0.36   62.5    19   15.7    23    22.2   805.3    0.00 
  87   16:50   0.27   62.2    18   15.4    19    21.5   805.4    0.00 
  87   17:00   0.22   61.4    18   14.6    23    20.6   805.4    0.00 
  87   17:10   0.20   60.8    19   12.7    20    19.7   805.5    0.00 
  87   17:20   0.17   60.0    20   12.6    12    18.3   805.6    0.00 
  87   17:30   0.12   58.9    21   12.1    19    17.4   805.7    0.00 
  87   17:40   0.07   57.0    23   10.8    24    14.8   805.9    0.00 
  87   17:50   0.05   55.4    24    8.8    25    12.0   806.0    0.00 
  87   18:00   0.02   53.9    25    9.0    15    12.9   806.1    0.00 
  87   18:10   0.01   53.2    25    8.6    14    13.2   806.2    0.00 
  87   18:20   0.01   50.8    28    7.5    18     9.6   806.2    0.00 
  87   18:30   0.00   49.3    28    6.0    14     9.2   806.3    0.00 
  87   18:40   0.00   47.2    30    4.7     1     5.4   806.4    0.00 
  87   18:50   0.00   43.9    33    3.3   284     4.5   806.5    0.00 
  87   19:00   0.00   39.8    39    3.5   241     4.3   806.6    0.00 
  87   19:10   0.00   41.5    35    3.0   242     4.8   806.8    0.00 
  87   19:20   0.00   44.9    30    2.2   228     2.9   806.8    0.00 
  87   19:30   0.00   43.0    32    4.5   255     6.3   806.9    0.00 
  87   19:40   0.00   39.5    37    5.8   264     7.1   807.1    0.00 
  87   19:50   0.00   38.3    39    5.8   268     7.7   807.1    0.00 
  87   20:00   0.00   36.8    40    5.1   270     7.5   807.1    0.00 
  87   20:10   0.00   35.1    44    2.3   214     3.7   807.2    0.00 
  87   20:20   0.00   36.0    44    3.1   211     4.2   807.2    0.00 
  87   20:30   0.00   37.4    44    3.1   220     4.0   807.2    0.00 
  87   20:40   0.00   37.9    42    2.9   215     3.8   807.2    0.00 
  87   20:50   0.00   36.5    48    2.1   186     4.3   807.2    0.00 
  87   21:00   0.00   35.4    51    0.1   307     1.1   807.2    0.00 
  87   21:10   0.00   35.7    49    0.9   279     2.7   807.1    0.00 
  87   21:20   0.00   36.5    45    0.2     6     1.5   807.2    0.00 
  87   21:30   0.00   37.3    41    3.1   360     5.7   807.3    0.00 
  87   21:40   0.00   37.6    40    1.5   334     4.2   807.3    0.00 
  87   21:50   0.00   38.1    40    2.6   266     5.7   807.4    0.00 
  87   22:00   0.00   32.2    54    4.5   191     5.9   807.5    0.00 
  87   22:10   0.00   32.9    52    2.8   227     3.9   807.5    0.00 
  87   22:20   0.00   31.5    57    4.0   241     4.7   807.6    0.00 
  87   22:30   0.00   30.9    57    3.1   245     4.4   807.6    0.00 
  87   22:40   0.00   29.8    59    3.1   236     3.6   807.6    0.00 
  87   22:50   0.00   32.1    55    3.5   239     4.8   807.5    0.00 
  87   23:00   0.00   33.1    52    4.1   215     5.3   807.5    0.00 
  87   23:10   0.00   33.6    52    3.0   190     3.9   807.5    0.00 
  87   23:20   0.00   35.2    48    2.7   199     3.7   807.4    0.00 
  87   23:30   0.00   36.0    46    3.0   157     3.7   807.4    0.00 
  87   23:40   0.00   33.2    53    2.3   144     3.1   807.4    0.00 
  87   23:50   0.00   32.4    57    2.1   224     3.1   807.5    0.00 
  88    0:00   0.00   32.0    54    2.1   277     3.2   807.5    0.00 
  88    0:10   0.00   32.8    51    1.1   248     2.6   807.4    0.00 
  88    0:20   0.00   33.6    50    3.6   200     4.8   807.4    0.00 
  88    0:30   0.00   27.5    62    4.6   239     5.5   807.4    0.00 
  88    0:40   0.00   26.6    69    4.1   226     5.8   807.4    0.00 
  88    0:50   0.00   26.2    69    2.9   270     5.0   807.4    0.00 
  88    1:00   0.00   29.7    61    1.4   217     2.6   807.4    0.00 
  88    1:10   0.00   29.6    59    2.0   255     3.1   807.3    0.00 
  88    1:20   0.00   31.2    56    2.8   241     3.5   807.3    0.00 
  88    1:30   0.00   31.6    53    2.8   240     3.5   807.2    0.00 
  88    1:40   0.00   31.0    52    1.4   215     2.6   807.3    0.00 
  88    1:50   0.00   29.2    56    2.4   163     3.7   807.3    0.00 
  88    2:00   0.00   21.2    76    3.1   206     4.3   807.4    0.00 
  88    2:10   0.00   21.7    80    3.7   191     4.5   807.3    0.00 
  88    2:20   0.00   22.1    79    2.9   197     4.4   807.4    0.00 

Return to Bridgeport Valley graphs page.


Western Regional Climate Center,wrcc@dri.edu